createdAt,value
2019-05-12T00:01:24.212Z,80.00
2019-05-12T00:03:54.472Z,79.80
2019-05-12T00:06:24.687Z,80.00
2019-05-12T00:08:57.850Z,80.00
2019-05-12T00:11:28.686Z,80.10
2019-05-12T00:13:58.851Z,80.30
2019-05-12T00:16:28.810Z,80.40
2019-05-12T00:18:59.084Z,80.50
2019-05-12T00:21:29.167Z,80.50
2019-05-12T00:24:11.291Z,80.40
2019-05-12T00:26:42.775Z,80.80
2019-05-12T00:29:12.876Z,80.90
2019-05-12T00:31:43.814Z,80.70
2019-05-12T00:34:14.453Z,81.00
2019-05-12T00:36:44.622Z,81.10
2019-05-12T00:39:14.858Z,81.40
2019-05-12T00:41:45.226Z,81.40
2019-05-12T00:44:15.345Z,81.30
2019-05-12T00:46:45.483Z,81.30
2019-05-12T00:49:15.616Z,81.50
2019-05-12T00:51:45.867Z,81.80
2019-05-12T00:54:17.708Z,82.00
2019-05-12T00:56:48.332Z,82.50
2019-05-12T00:59:19.169Z,82.50
2019-05-12T01:01:49.207Z,82.40
2019-05-12T01:04:19.143Z,82.60
2019-05-12T01:06:51.944Z,82.40
2019-05-12T01:09:21.250Z,82.30
2019-05-12T01:11:51.463Z,82.40
2019-05-12T01:14:21.697Z,82.40
2019-05-12T01:16:51.603Z,82.30
2019-05-12T01:19:21.743Z,82.40
2019-05-12T01:21:51.857Z,82.60
2019-05-12T01:24:22.124Z,82.80
2019-05-12T01:26:52.331Z,82.70
2019-05-12T01:29:22.522Z,82.70
2019-05-12T01:31:54.356Z,82.70
2019-05-12T01:34:24.370Z,82.60
2019-05-12T01:36:58.439Z,82.60
2019-05-12T01:39:27.829Z,82.60
2019-05-12T01:41:58.693Z,82.70
2019-05-12T01:44:28.786Z,82.50
2019-05-12T01:46:58.723Z,82.60
2019-05-12T01:49:29.046Z,82.80
2019-05-12T01:51:59.269Z,82.90
2019-05-12T01:54:29.411Z,83.10
2019-05-12T01:57:07.984Z,83.00
2019-05-12T01:59:58.598Z,83.10
2019-05-12T02:02:39.142Z,83.60
2019-05-12T02:05:09.968Z,83.60
2019-05-12T02:07:47.973Z,83.80
2019-05-12T02:11:18.340Z,83.80
2019-05-12T02:13:57.885Z,84.10
2019-05-12T02:16:47.848Z,84.40
2019-05-12T02:19:21.684Z,84.80
2019-05-12T02:21:51.896Z,85.00
2019-05-12T02:24:27.102Z,85.00
2019-05-12T02:26:53.367Z,85.00
2019-05-12T02:29:23.582Z,85.10
2019-05-12T02:31:53.795Z,85.00
2019-05-12T02:34:25.340Z,84.60
2019-05-12T02:36:55.757Z,84.50
2019-05-12T02:39:25.955Z,84.40
2019-05-12T02:41:56.111Z,84.40
2019-05-12T02:44:26.336Z,84.20
2019-05-12T02:46:56.627Z,84.20
2019-05-12T02:49:26.919Z,85.10
2019-05-12T02:51:58.312Z,84.70
2019-05-12T02:54:49.392Z,84.60
2019-05-12T02:57:04.055Z,84.50
2019-05-12T02:59:35.241Z,84.50
2019-05-12T03:02:05.614Z,84.60
2019-05-12T03:04:35.869Z,84.50
2019-05-12T03:07:06.661Z,84.60
2019-05-12T03:09:37.038Z,84.40
2019-05-12T03:12:07.031Z,84.60
2019-05-12T03:14:40.803Z,84.60
2019-05-12T03:17:09.097Z,84.80
2019-05-12T03:19:38.954Z,84.50
2019-05-12T03:22:09.094Z,84.90
2019-05-12T03:24:39.313Z,84.70
2019-05-12T03:27:10.383Z,84.60
2019-05-12T03:29:40.230Z,84.50
2019-05-12T03:32:11.275Z,84.50
2019-05-12T03:34:46.868Z,84.40
2019-05-12T03:37:17.965Z,84.20
2019-05-12T03:39:45.468Z,84.30
2019-05-12T03:42:15.632Z,84.30
2019-05-12T03:44:45.816Z,84.40
2019-05-12T03:47:15.756Z,84.30
2019-05-12T03:49:45.623Z,84.20
2019-05-12T03:52:15.669Z,84.30
2019-05-12T03:54:45.832Z,84.50
2019-05-12T03:57:15.759Z,84.50
2019-05-12T03:59:46.040Z,84.70
2019-05-12T04:02:15.939Z,84.60
2019-05-12T04:04:46.078Z,84.40
2019-05-12T04:07:16.269Z,84.40
2019-05-12T04:09:46.569Z,84.30
2019-05-12T04:12:18.691Z,84.30
2019-05-12T04:14:48.553Z,84.20
2019-05-12T04:17:18.680Z,84.20
2019-05-12T04:19:48.850Z,84.40
2019-05-12T04:22:18.983Z,84.50
2019-05-12T04:24:49.141Z,84.50
2019-05-12T04:27:19.534Z,84.80
2019-05-12T04:29:49.441Z,85.00
2019-05-12T04:32:19.360Z,85.00
2019-05-12T04:34:49.470Z,84.90
2019-05-12T04:37:19.599Z,85.00
2019-05-12T04:39:49.475Z,85.60
2019-05-12T04:42:19.368Z,85.80
2019-05-12T04:44:49.607Z,85.80
2019-05-12T04:47:19.887Z,86.10
2019-05-12T04:49:49.863Z,86.20
2019-05-12T04:52:20.024Z,86.30
2019-05-12T04:54:49.859Z,86.30
2019-05-12T04:57:21.248Z,86.20
2019-05-12T04:59:54.344Z,86.00
2019-05-12T05:02:24.970Z,85.80
2019-05-12T05:04:55.444Z,85.50
2019-05-12T05:07:25.720Z,85.40
2019-05-12T05:09:55.813Z,85.70
2019-05-12T05:12:26.007Z,86.20
2019-05-12T05:14:56.211Z,85.50
2019-05-12T05:17:26.465Z,84.40
2019-05-12T05:19:57.301Z,84.20
2019-05-12T05:22:27.597Z,83.30
2019-05-12T05:24:57.892Z,83.70
2019-05-12T05:27:28.216Z,83.20
2019-05-12T05:29:58.475Z,82.50
2019-05-12T05:32:28.675Z,82.40
2019-05-12T05:34:58.507Z,81.60
2019-05-12T05:37:30.755Z,81.00
2019-05-12T05:40:00.439Z,81.10
2019-05-12T05:42:33.360Z,81.40
2019-05-12T05:45:04.834Z,80.40
2019-05-12T05:47:35.022Z,80.40
2019-05-12T05:50:07.278Z,79.90
2019-05-12T05:52:38.837Z,80.00
2019-05-12T05:55:14.640Z,80.10
2019-05-12T05:57:40.771Z,79.80
2019-05-12T06:00:20.189Z,79.90
2019-05-12T06:02:44.290Z,80.40
2019-05-12T06:05:14.663Z,79.80
2019-05-12T06:07:44.558Z,79.00
2019-05-12T06:10:16.262Z,79.10
2019-05-12T06:12:50.695Z,79.10
2019-05-12T06:15:17.868Z,78.70
2019-05-12T06:18:04.327Z,77.60
2019-05-12T06:20:37.983Z,78.40
2019-05-12T06:23:06.722Z,78.90
2019-05-12T06:25:46.394Z,78.10
2019-05-12T06:28:09.232Z,77.70
2019-05-12T06:30:44.327Z,77.30
2019-05-12T06:33:11.434Z,76.40
2019-05-12T06:35:44.635Z,76.00
2019-05-12T06:38:13.660Z,76.00
2019-05-12T06:40:45.325Z,76.40
2019-05-12T06:43:17.873Z,75.70
2019-05-12T06:45:48.192Z,75.00
2019-05-12T06:48:19.224Z,74.20
2019-05-12T06:50:50.311Z,74.00
2019-05-12T06:53:25.470Z,74.60
2019-05-12T06:55:53.993Z,73.30
2019-05-12T06:58:28.951Z,73.40
2019-05-12T07:00:56.524Z,73.00
2019-05-12T07:03:30.788Z,72.20
2019-05-12T07:05:58.608Z,72.80
2019-05-12T07:08:32.906Z,73.20
2019-05-12T07:11:05.751Z,72.80
2019-05-12T07:13:34.285Z,71.90
2019-05-12T07:16:19.283Z,72.50
2019-05-12T07:18:47.902Z,72.40
2019-05-12T07:21:20.194Z,71.00
2019-05-12T07:23:50.066Z,71.80
2019-05-12T07:26:20.299Z,71.40
2019-05-12T07:28:50.852Z,70.50
2019-05-12T07:31:23.166Z,70.50
2019-05-12T07:33:55.516Z,70.60
2019-05-12T07:36:25.765Z,69.60
2019-05-12T07:39:03.847Z,68.20
2019-05-12T07:41:35.477Z,69.40
2019-05-12T07:44:05.953Z,69.10
2019-05-12T07:46:39.656Z,69.10
2019-05-12T07:49:09.022Z,69.10
2019-05-12T07:51:40.777Z,69.50
2019-05-12T07:54:11.021Z,68.50
2019-05-12T07:56:44.087Z,68.20
2019-05-12T07:59:13.588Z,69.10
2019-05-12T08:01:50.665Z,67.00
2019-05-12T08:04:15.821Z,67.20
2019-05-12T08:06:46.951Z,67.10
2019-05-12T08:09:17.872Z,67.30
2019-05-12T08:11:48.809Z,67.70
2019-05-12T08:14:34.193Z,66.30
2019-05-12T08:17:11.901Z,66.20
2019-05-12T08:19:45.600Z,67.00
2019-05-12T08:22:18.801Z,68.20
2019-05-12T08:24:53.722Z,66.70
2019-05-12T08:27:26.151Z,67.20
2019-05-12T08:30:15.974Z,66.10
2019-05-12T08:35:40.813Z,65.70
2019-05-12T08:38:11.152Z,66.00
2019-05-12T08:40:46.469Z,65.00
2019-05-12T08:43:14.895Z,64.40
2019-05-12T08:45:53.440Z,64.50
2019-05-12T08:48:25.002Z,64.10
2019-05-12T08:50:57.360Z,64.20
2019-05-12T08:53:27.612Z,65.00
2019-05-12T08:55:57.924Z,64.90
2019-05-12T08:58:33.504Z,64.20
2019-05-12T09:01:00.585Z,64.20
2019-05-12T09:03:33.551Z,64.50
2019-05-12T09:06:09.316Z,65.10
2019-05-12T09:08:45.130Z,63.20
2019-05-12T09:11:13.769Z,62.90
2019-05-12T09:13:43.924Z,63.50
2019-05-12T09:16:14.455Z,64.20
2019-05-12T09:18:46.004Z,63.30
2019-05-12T09:21:17.263Z,63.00
2019-05-12T09:23:47.713Z,63.10
2019-05-12T09:26:18.591Z,62.00
2019-05-12T09:28:50.530Z,63.10
2019-05-12T09:31:25.552Z,62.10
2019-05-12T09:33:54.714Z,62.70
2019-05-12T09:36:24.762Z,62.60
2019-05-12T09:39:01.638Z,63.00
2019-05-12T09:41:27.564Z,62.20
2019-05-12T09:43:57.789Z,61.00
2019-05-12T09:46:28.267Z,62.40
2019-05-12T09:48:59.855Z,63.40
2019-05-12T09:51:32.884Z,61.80
2019-05-12T09:54:02.030Z,61.00
2019-05-12T09:56:34.214Z,62.40
2019-05-12T09:59:17.453Z,61.70
2019-05-12T10:01:39.689Z,61.10
2019-05-12T10:04:15.394Z,60.80
2019-05-12T10:06:44.395Z,62.90
2019-05-12T10:09:19.417Z,61.00
2019-05-12T10:11:53.866Z,60.70
2019-05-12T10:14:19.445Z,59.30
2019-05-12T10:16:49.964Z,59.30
2019-05-12T10:19:20.057Z,59.40
2019-05-12T10:21:57.812Z,59.40
2019-05-12T10:24:22.102Z,59.20
2019-05-12T10:26:53.995Z,60.10
2019-05-12T10:29:24.504Z,57.60
2019-05-12T10:31:55.108Z,56.40
2019-05-12T10:34:29.217Z,56.60
2019-05-12T10:36:57.220Z,54.80
2019-05-12T10:39:27.616Z,53.40
2019-05-12T10:41:57.804Z,53.60
2019-05-12T10:44:29.932Z,52.60
2019-05-12T10:47:01.301Z,52.70
2019-05-12T10:49:31.187Z,51.70
2019-05-12T10:52:01.175Z,52.50
2019-05-12T10:54:31.219Z,52.80
2019-05-12T10:57:01.652Z,52.20
2019-05-12T10:59:33.441Z,54.10
2019-05-12T11:02:04.046Z,52.80
2019-05-12T11:04:38.897Z,52.70
2019-05-12T11:07:06.282Z,52.80
2019-05-12T11:09:37.462Z,53.10
2019-05-12T11:12:07.403Z,53.30
2019-05-12T11:14:37.496Z,53.80
2019-05-12T11:17:10.000Z,55.90
2019-05-12T11:19:45.864Z,54.10
2019-05-12T11:22:13.912Z,52.40
2019-05-12T11:24:44.622Z,51.70
2019-05-12T11:27:14.624Z,52.50
2019-05-12T11:29:49.337Z,52.20
2019-05-12T11:32:17.931Z,53.30
2019-05-12T11:34:48.343Z,50.10
2019-05-12T11:37:18.322Z,50.40
2019-05-12T11:39:48.743Z,49.70
2019-05-12T11:42:20.971Z,49.10
2019-05-12T11:44:51.310Z,49.30
2019-05-12T11:47:24.295Z,47.90
2019-05-12T11:49:53.681Z,47.00
2019-05-12T11:52:24.098Z,46.90
2019-05-12T11:54:55.355Z,48.00
2019-05-12T11:57:30.092Z,48.60
2019-05-12T12:00:01.511Z,48.00
2019-05-12T12:02:30.713Z,49.90
2019-05-12T12:05:01.240Z,49.20
2019-05-12T12:07:33.298Z,49.10
2019-05-12T12:10:04.610Z,49.10
2019-05-12T12:12:39.453Z,48.80
2019-05-12T12:15:07.640Z,48.20
2019-05-12T12:17:37.923Z,46.10
2019-05-12T12:20:14.009Z,43.60
2019-05-12T12:22:43.981Z,43.00
2019-05-12T12:25:17.441Z,43.90
2019-05-12T12:27:47.608Z,46.50
2019-05-12T12:30:19.971Z,45.90
2019-05-12T12:32:50.349Z,44.40
2019-05-12T12:35:23.388Z,40.10
2019-05-12T12:37:54.246Z,42.60
2019-05-12T12:40:24.427Z,42.10
2019-05-12T12:42:56.353Z,41.20
2019-05-12T12:45:30.340Z,41.60
2019-05-12T12:48:00.260Z,39.80
2019-05-12T12:50:30.901Z,40.90
2019-05-12T12:53:01.148Z,39.70
2019-05-12T12:55:31.186Z,38.00
2019-05-12T12:58:03.341Z,39.20
2019-05-12T13:00:46.667Z,38.10
2019-05-12T13:03:06.430Z,37.50
2019-05-12T13:05:37.806Z,40.40
2019-05-12T13:08:08.164Z,38.40
2019-05-12T13:10:40.694Z,39.70
2019-05-12T13:13:14.183Z,37.50
2019-05-12T13:15:45.127Z,37.20
2019-05-12T13:18:24.096Z,36.30
2019-05-12T13:20:47.517Z,36.70
2019-05-12T13:23:17.464Z,36.30
2019-05-12T13:25:51.852Z,34.70
2019-05-12T13:28:22.738Z,35.50
2019-05-12T13:30:53.718Z,37.30
2019-05-12T13:33:26.664Z,35.80
2019-05-12T13:35:57.551Z,36.10
2019-05-12T13:38:30.572Z,34.90
2019-05-12T13:41:00.803Z,35.20
2019-05-12T13:43:31.024Z,40.20
2019-05-12T13:46:01.052Z,36.90
2019-05-12T13:48:31.095Z,37.80
2019-05-12T13:51:08.440Z,37.40
2019-05-12T13:53:40.371Z,37.30
2019-05-12T13:56:06.582Z,35.90
2019-05-12T13:58:42.579Z,33.80
2019-05-12T14:01:17.002Z,33.80
2019-05-12T14:03:46.234Z,35.90
2019-05-12T14:06:13.942Z,35.10
2019-05-12T14:08:44.610Z,35.80
2019-05-12T14:11:18.408Z,35.60
2019-05-12T14:13:47.649Z,35.80
2019-05-12T14:16:17.989Z,34.80
2019-05-12T14:18:51.059Z,35.20
2019-05-12T14:21:20.203Z,36.30
2019-05-12T14:23:51.631Z,37.20
2019-05-12T14:26:24.094Z,35.00
2019-05-12T14:28:53.960Z,35.30
2019-05-12T14:31:30.596Z,33.00
2019-05-12T14:33:59.033Z,31.80
2019-05-12T14:36:31.951Z,31.30
2019-05-12T14:39:06.255Z,30.60
2019-05-12T14:41:34.255Z,32.00
2019-05-12T14:44:04.573Z,33.00
2019-05-12T14:46:39.818Z,31.60
2019-05-12T14:49:07.056Z,31.90
2019-05-12T14:51:37.372Z,34.30
2019-05-12T14:54:08.032Z,33.60
2019-05-12T14:56:38.341Z,33.00
2019-05-12T14:59:08.866Z,33.50
2019-05-12T15:01:53.626Z,35.50
2019-05-12T15:04:13.131Z,35.50
2019-05-12T15:06:44.366Z,35.40
2019-05-12T15:09:19.638Z,33.30
2019-05-12T15:11:46.457Z,33.20
2019-05-12T15:14:17.599Z,34.80
2019-05-12T15:16:49.774Z,36.20
2019-05-12T15:19:20.734Z,34.70
2019-05-12T15:21:53.633Z,35.80
2019-05-12T15:24:24.593Z,35.10
2019-05-12T15:26:57.503Z,35.90
2019-05-12T15:29:27.035Z,36.60
2019-05-12T15:31:57.183Z,36.00
2019-05-12T15:34:27.387Z,36.60
2019-05-12T15:37:00.189Z,37.90
2019-05-12T15:39:29.373Z,36.00
2019-05-12T15:41:59.587Z,35.90
2019-05-12T15:44:32.050Z,36.50
2019-05-12T15:47:03.698Z,36.50
2019-05-12T15:49:33.604Z,36.70
2019-05-12T15:52:04.168Z,36.40
2019-05-12T15:54:36.237Z,37.30
2019-05-12T15:57:06.147Z,37.40
2019-05-12T15:59:36.105Z,39.00
2019-05-12T16:02:12.021Z,37.50
2019-05-12T16:04:42.874Z,38.80
2019-05-12T16:07:09.976Z,37.80
2019-05-12T16:09:39.857Z,38.90
2019-05-12T16:12:20.057Z,38.20
2019-05-12T16:14:44.256Z,39.30
2019-05-12T16:17:16.857Z,39.40
2019-05-12T16:19:46.366Z,40.00
2019-05-12T16:22:16.518Z,40.20
2019-05-12T16:24:48.790Z,38.60
2019-05-12T16:27:18.317Z,39.90
2019-05-12T16:29:50.058Z,41.20
2019-05-12T16:32:26.839Z,40.80
2019-05-12T16:34:54.124Z,41.10
2019-05-12T16:37:31.161Z,40.50
2019-05-12T16:40:04.331Z,40.50
2019-05-12T16:42:34.920Z,40.50
2019-05-12T16:45:11.463Z,40.50
2019-05-12T16:47:41.666Z,40.70
2019-05-12T16:50:23.727Z,41.20
2019-05-12T16:53:02.325Z,41.90
2019-05-12T16:55:50.002Z,40.40
2019-05-12T16:58:33.339Z,40.20
2019-05-12T17:01:03.835Z,40.90
2019-05-12T17:03:35.985Z,42.00
2019-05-12T17:06:06.288Z,41.00
2019-05-12T17:08:36.185Z,40.60
2019-05-12T17:11:22.973Z,41.20
2019-05-12T17:13:37.999Z,41.10
2019-05-12T17:16:08.315Z,42.40
2019-05-12T17:18:38.838Z,41.70
2019-05-12T17:21:09.290Z,42.20
2019-05-12T17:23:41.753Z,41.40
2019-05-12T17:26:13.914Z,42.20
2019-05-12T17:28:44.704Z,42.60
2019-05-12T17:31:16.063Z,42.70
2019-05-12T17:33:46.365Z,44.60
2019-05-12T17:36:17.973Z,43.40
2019-05-12T17:38:51.040Z,43.10
2019-05-12T17:41:20.650Z,43.30
2019-05-12T17:43:56.593Z,44.00
2019-05-12T17:46:23.955Z,44.30
2019-05-12T17:48:53.920Z,43.70
2019-05-12T17:51:28.849Z,44.70
2019-05-12T17:53:56.289Z,44.90
2019-05-12T17:56:34.046Z,44.90
2019-05-12T17:58:59.459Z,44.20
2019-05-12T18:01:31.444Z,44.00
2019-05-12T18:04:04.093Z,44.10
2019-05-12T18:06:34.234Z,43.50
2019-05-12T18:09:09.340Z,44.30
2019-05-12T18:11:39.102Z,44.90
2019-05-12T18:14:09.197Z,44.90
2019-05-12T18:16:39.346Z,46.20
2019-05-12T18:19:17.693Z,46.70
2019-05-12T18:21:41.276Z,47.10
2019-05-12T18:24:13.872Z,48.00
2019-05-12T18:26:47.126Z,47.20
2019-05-12T18:29:16.004Z,46.90
2019-05-12T18:31:46.455Z,46.90
2019-05-12T18:34:19.744Z,47.90
2019-05-12T18:36:48.946Z,48.60
2019-05-12T18:39:20.365Z,49.40
2019-05-12T18:41:50.679Z,49.90
2019-05-12T18:44:26.261Z,50.10
2019-05-12T18:46:53.932Z,50.30
2019-05-12T18:49:25.400Z,50.50
2019-05-12T18:51:57.113Z,50.80
2019-05-12T18:54:27.732Z,50.00
2019-05-12T18:57:02.130Z,50.60
2019-05-12T18:59:30.127Z,50.80
2019-05-12T19:02:00.374Z,50.30
2019-05-12T19:04:34.008Z,50.00
2019-05-12T19:07:03.889Z,51.00
2019-05-12T19:09:35.327Z,50.90
2019-05-12T19:12:15.810Z,51.10
2019-05-12T19:14:40.437Z,51.70
2019-05-12T19:17:10.675Z,51.70
2019-05-12T19:19:41.063Z,53.10
2019-05-12T19:22:11.075Z,55.60
2019-05-12T19:24:41.015Z,58.20
2019-05-12T19:27:16.605Z,59.80
2019-05-12T19:29:48.804Z,60.90
2019-05-12T19:32:14.974Z,61.60
2019-05-12T19:34:46.349Z,62.50
2019-05-12T19:37:19.451Z,62.80
2019-05-12T19:39:48.890Z,63.80
2019-05-12T19:42:24.412Z,65.20
2019-05-12T19:44:59.999Z,65.90
2019-05-12T19:47:33.796Z,66.10
2019-05-12T19:50:08.799Z,66.70
2019-05-12T19:52:34.447Z,66.90
2019-05-12T19:55:06.466Z,67.30
2019-05-12T19:57:37.044Z,68.10
2019-05-12T20:00:07.246Z,68.50
2019-05-12T20:02:37.662Z,69.00
2019-05-12T20:05:08.263Z,69.20
2019-05-12T20:07:38.189Z,69.50
2019-05-12T20:10:12.163Z,69.70
2019-05-12T20:12:43.430Z,69.80
2019-05-12T20:15:15.017Z,70.00
2019-05-12T20:17:48.534Z,69.70
2019-05-12T20:20:28.937Z,70.40
2019-05-12T20:22:54.198Z,70.80
2019-05-12T20:25:24.386Z,71.40
2019-05-12T20:27:56.091Z,71.90
2019-05-12T20:30:28.202Z,72.20
2019-05-12T20:32:58.519Z,72.60
2019-05-12T20:35:28.727Z,72.80
2019-05-12T20:37:58.941Z,73.40
2019-05-12T20:40:32.202Z,73.10
2019-05-12T20:43:08.754Z,73.50
2019-05-12T20:45:40.494Z,73.70
2019-05-12T20:48:05.233Z,74.20
2019-05-12T20:50:38.657Z,74.70
2019-05-12T20:53:09.172Z,74.70
2019-05-12T20:55:41.444Z,75.30
2019-05-12T20:58:13.446Z,75.20
2019-05-12T21:00:48.190Z,75.40
2019-05-12T21:03:14.682Z,75.80
2019-05-12T21:05:44.827Z,76.00
2019-05-12T21:08:15.539Z,76.10
2019-05-12T21:10:46.276Z,76.10
2019-05-12T21:13:20.464Z,76.30
2019-05-12T21:15:48.311Z,76.20
2019-05-12T21:18:18.547Z,76.20
2019-05-12T21:20:52.348Z,76.80
2019-05-12T21:23:20.667Z,77.00
2019-05-12T21:25:56.205Z,77.20
2019-05-12T21:28:23.852Z,77.30
2019-05-12T21:30:55.765Z,77.80
2019-05-12T21:33:31.251Z,78.20
2019-05-12T21:35:57.839Z,78.20
2019-05-12T21:38:29.697Z,78.10
2019-05-12T21:41:02.142Z,77.60
2019-05-12T21:43:32.080Z,77.10
2019-05-12T21:46:07.866Z,77.10
2019-05-12T21:48:34.263Z,76.60
2019-05-12T21:51:09.797Z,77.20
2019-05-12T21:53:36.134Z,76.80
2019-05-12T21:56:06.181Z,77.00
2019-05-12T21:58:36.057Z,76.60
2019-05-12T22:01:08.633Z,77.20
2019-05-12T22:03:38.944Z,77.80
2019-05-12T22:06:16.729Z,77.80
2019-05-12T22:08:40.806Z,77.70
2019-05-12T22:11:11.692Z,77.70
2019-05-12T22:13:46.804Z,78.30
2019-05-12T22:16:15.065Z,78.30
2019-05-12T22:18:47.842Z,78.00
2019-05-12T22:21:18.201Z,78.10
2019-05-12T22:23:51.380Z,78.00
2019-05-12T22:26:20.159Z,78.00
2019-05-12T22:28:51.084Z,78.00
2019-05-12T22:31:21.404Z,78.30
2019-05-12T22:33:54.080Z,78.10
2019-05-12T22:36:26.005Z,78.10
2019-05-12T22:39:00.764Z,77.70
2019-05-12T22:41:30.458Z,78.30
2019-05-12T22:43:59.584Z,78.90
2019-05-12T22:46:31.332Z,79.30
2019-05-12T22:49:01.199Z,79.40
2019-05-12T22:51:32.358Z,79.00
2019-05-12T22:54:08.652Z,78.50
2019-05-12T22:56:34.436Z,78.40
2019-05-12T22:59:04.697Z,78.70
2019-05-12T23:01:41.754Z,78.50
2019-05-12T23:04:06.862Z,79.10
2019-05-12T23:06:42.310Z,79.00
2019-05-12T23:09:09.055Z,78.40
2019-05-12T23:11:39.226Z,78.70
2019-05-12T23:14:12.493Z,78.40
2019-05-12T23:16:41.007Z,78.80
2019-05-12T23:19:12.383Z,78.90
2019-05-12T23:21:43.906Z,79.00
2019-05-12T23:24:14.258Z,79.00
2019-05-12T23:26:47.831Z,79.30
2019-05-12T23:29:20.380Z,79.80
2019-05-12T23:31:47.878Z,80.00
2019-05-12T23:34:18.151Z,80.30
2019-05-12T23:36:50.345Z,80.60
2019-05-12T23:39:19.974Z,81.30
2019-05-12T23:41:50.107Z,81.70
2019-05-12T23:44:21.290Z,81.90
2019-05-12T23:46:53.667Z,81.70
2019-05-12T23:49:24.449Z,82.10
2019-05-12T23:51:54.707Z,81.90
2019-05-12T23:54:24.853Z,81.90
2019-05-12T23:56:55.003Z,81.70
2019-05-12T23:59:25.155Z,81.70
